1897 NOT_NAMED (1897042S12062)


IBTrACS version v04r00. Visit IBTrACS website for data access.
Please direct all questions to the IBTrACS Q and A forum

Storm track - Intensity - Wind Radii - Intensity Data - Source Data - All data

Summary Information

Storm ID 1897042S12062
Start Feb 11 00Z
End Feb 21 00Z
ATCF IDs
Track status Best track data.

Storm track plot

Map of storm track

Intensity plots

No Intensity information for this storm


Radial wind information

No radial wind information for this storm


Position and Intensity Table

BASIN ISO_TIME_________ NATURE LAT LON
degrees north degrees east
SI 1897-02-11 00:00:00 TS -12.30 61.50
SI 03:00:00 TS -12.29 61.00
SI 06:00:00 TS -12.30 60.50
SI 09:00:00 TS -12.34 59.99
SI 12:00:00 TS -12.40 59.50
SI 15:00:00 TS -12.45 59.08
SI 18:00:00 TS -12.50 58.70
SI 21:00:00 TS -12.55 58.33
SI 1897-02-12 00:00:00 TS -12.60 58.00
SI 03:00:00 TS -12.65 57.69
SI 06:00:00 TS -12.70 57.40
SI 09:00:00 TS -12.75 57.09
SI 12:00:00 TS -12.80 56.80
SI 15:00:00 TS -12.84 56.55
SI 18:00:00 TS -12.90 56.30
SI 21:00:00 TS -13.00 55.99
SI 1897-02-13 00:00:00 TS -13.10 55.70
SI 03:00:00 TS -13.16 55.49
SI 06:00:00 TS -13.20 55.30
SI 09:00:00 TS -13.25 55.06
SI 12:00:00 TS -13.30 54.80
SI 15:00:00 TS -13.35 54.54
SI 18:00:00 TS -13.40 54.30
SI 21:00:00 TS -13.44 54.10
SI 1897-02-14 00:00:00 TS -13.50 53.90
SI 03:00:00 TS -13.59 53.65
SI 06:00:00 TS -13.70 53.40
SI 09:00:00 TS -13.79 53.19
SI 12:00:00 TS -13.90 53.00
SI 15:00:00 TS -14.04 52.80
SI 18:00:00 TS -14.20 52.60
SI 21:00:00 TS -14.33 52.40
SI 1897-02-15 00:00:00 TS -14.50 52.20
SI 03:00:00 TS -14.73 51.99
SI 06:00:00 TS -15.00 51.80
SI 09:00:00 TS -15.28 51.68
SI 12:00:00 TS -15.60 51.60
SI 15:00:00 TS -15.94 51.49
SI 18:00:00 TS -16.30 51.40
SI 21:00:00 TS -16.66 51.34
SI 1897-02-16 00:00:00 TS -17.00 51.30
SI 03:00:00 TS -17.31 51.25
SI 06:00:00 TS -17.60 51.20
SI 09:00:00 TS -17.90 51.14
SI 12:00:00 TS -18.20 51.10
SI 15:00:00 TS -18.51 51.08
SI 18:00:00 TS -18.80 51.10
SI 21:00:00 TS -18.99 51.13
SI 1897-02-17 00:00:00 TS -19.30 51.20
SI 03:00:00 TS -19.94 51.32
SI 06:00:00 TS -20.70 51.50
SI 09:00:00 TS -21.39 51.73
SI 12:00:00 TS -22.00 52.00
SI 15:00:00 TS -22.49 52.24
SI 18:00:00 TS -22.90 52.50
SI 21:00:00 TS -23.32 52.84
SI 1897-02-18 00:00:00 TS -23.70 53.20
SI 03:00:00 TS -24.05 53.54
SI 06:00:00 TS -24.40 53.90
SI 09:00:00 TS -24.80 54.30
SI 12:00:00 TS -25.20 54.70
SI 15:00:00 TS -25.55 55.05
SI 18:00:00 TS -25.90 55.40
SI 21:00:00 TS -26.29 55.79
SI 1897-02-19 00:00:00 TS -26.70 56.20
SI 03:00:00 TS -27.10 56.60
SI 06:00:00 TS -27.50 57.00
SI 09:00:00 TS -27.89 57.39
SI 12:00:00 TS -28.30 57.80
SI 15:00:00 TS -28.75 58.24
SI 18:00:00 TS -29.20 58.70
SI 21:00:00 TS -29.58 59.14
SI 1897-02-20 00:00:00 TS -30.00 59.60
SI 03:00:00 TS -30.52 60.14
SI 06:00:00 TS -31.10 60.70
SI 09:00:00 TS -31.67 61.25
SI 12:00:00 TS -32.30 61.80
SI 15:00:00 TS -33.01 62.36
SI 18:00:00 TS -33.80 62.90
SI 21:00:00 TS -34.64 63.41
SI 1897-02-21 00:00:00 TS -35.50 63.90

Source Information

Agency Information
USA
TOKYO
CMA
HKO
NEWDELHI
REUNION
BOM
NADI
WELLINGTON
DS824 s_hem.dat:94:NOT NAMED
TD9636
TD9635
NEUMANN
MLC

All available IBTrACS Data

SEASON BASIN SUBBASIN ISO_TIME_________ NATURE LAT LON DIST2LAND LANDFALL IFLAG USA SSHS DS824 LAT DS824 LON DS824 STAGE STORM SPEED STORM DIR
Year degrees north degrees east km km 1 degrees north degrees east kts degrees
1897 SI MM 1897-02-11 00:00:00 TS -12.30 61.50 962 941 _________O____ -1 -12.30 61.50 TC 10 271
1897 SI MM 03:00:00 TS -12.29 61.00 941 922 _________P____ -1 -12.29 61.00 TC 10 270
1897 SI MM 06:00:00 TS -12.30 60.50 922 906 _________O____ -1 -12.30 60.50 TC 10 267
1897 SI MM 09:00:00 TS -12.34 59.99 906 882 _________P____ -1 -12.34 59.99 TC 10 264
1897 SI MM 12:00:00 TS -12.40 59.50 882 874 _________O____ -1 -12.40 59.50 TC 9 263
1897 SI MM 15:00:00 TS -12.45 59.08 874 857 _________P____ -1 -12.45 59.08 TC 8 263
1897 SI MM 18:00:00 TS -12.50 58.70 857 853 _________O____ -1 -12.50 58.70 TC 7 262
1897 SI MM 21:00:00 TS -12.55 58.33 852 839 _________P____ -1 -12.55 58.33 TC 7 262
1897 SI MM 1897-02-12 00:00:00 TS -12.60 58.00 839 830 _________O____ -1 -12.60 58.00 TC 6 261
1897 SI MM 03:00:00 TS -12.65 57.69 830 795 _________P____ -1 -12.65 57.69 TC 6 260
1897 SI MM 06:00:00 TS -12.70 57.40 795 765 _________O____ -1 -12.70 57.40 TC 6 260
1897 SI MM 09:00:00 TS -12.75 57.09 765 731 _________P____ -1 -12.75 57.09 TC 6 260
1897 SI MM 12:00:00 TS -12.80 56.80 731 711 _________O____ -1 -12.80 56.80 TC 5 260
1897 SI MM 15:00:00 TS -12.84 56.55 701 676 _________P____ -1 -12.84 56.55 TC 5 258
1897 SI MM 18:00:00 TS -12.90 56.30 676 642 _________O____ -1 -12.90 56.30 TC 6 254
1897 SI MM 21:00:00 TS -13.00 55.99 642 608 _________P____ -1 -13.00 55.99 TC 6 251
1897 SI MM 1897-02-13 00:00:00 TS -13.10 55.70 608 583 _________O____ -1 -13.10 55.70 TC 5 252
1897 SI MM 03:00:00 TS -13.16 55.49 583 564 _________P____ -1 -13.16 55.49 TC 4 256
1897 SI MM 06:00:00 TS -13.20 55.30 564 544 _________O____ -1 -13.20 55.30 TC 4 258
1897 SI MM 09:00:00 TS -13.25 55.06 544 510 _________P____ -1 -13.25 55.06 TC 5 258
1897 SI MM 12:00:00 TS -13.30 54.80 510 489 _________O____ -1 -13.30 54.80 TC 5 259
1897 SI MM 15:00:00 TS -13.35 54.54 479 456 _________P____ -1 -13.35 54.54 TC 5 258
1897 SI MM 18:00:00 TS -13.40 54.30 456 434 _________O____ -1 -13.40 54.30 TC 4 258
1897 SI MM 21:00:00 TS -13.44 54.10 434 412 _________P____ -1 -13.44 54.10 TC 4 256
1897 SI MM 1897-02-14 00:00:00 TS -13.50 53.90 412 388 _________O____ -1 -13.50 53.90 TC 5 251
1897 SI MM 03:00:00 TS -13.59 53.65 388 354 _________P____ -1 -13.59 53.65 TC 5 248
1897 SI MM 06:00:00 TS -13.70 53.40 354 330 _________O____ -1 -13.70 53.40 TC 5 246
1897 SI MM 09:00:00 TS -13.79 53.19 330 306 _________P____ -1 -13.79 53.19 TC 4 243
1897 SI MM 12:00:00 TS -13.90 53.00 306 281 _________O____ -1 -13.90 53.00 TC 5 237
1897 SI MM 15:00:00 TS -14.04 52.80 281 252 _________P____ -1 -14.04 52.80 TC 5 232
1897 SI MM 18:00:00 TS -14.20 52.60 252 227 _________O____ -1 -14.20 52.60 TC 5 233
1897 SI MM 21:00:00 TS -14.33 52.40 227 198 _________P____ -1 -14.33 52.40 TC 5 232
1897 SI MM 1897-02-15 00:00:00 TS -14.50 52.20 198 170 _________O____ -1 -14.50 52.20 TC 6 226
1897 SI MM 03:00:00 TS -14.73 51.99 170 141 _________P____ -1 -14.73 51.99 TC 6 218
1897 SI MM 06:00:00 TS -15.00 51.80 141 128 _________O____ -1 -15.00 51.80 TC 6 208
1897 SI MM 09:00:00 TS -15.28 51.68 128 117 _________P____ -1 -15.28 51.68 TC 6 198
1897 SI MM 12:00:00 TS -15.60 51.60 120 116 _________O____ -1 -15.60 51.60 TC 7 196
1897 SI MM 15:00:00 TS -15.94 51.49 120 120 _________P____ -1 -15.94 51.49 TC 7 195
1897 SI MM 18:00:00 TS -16.30 51.40 130 130 _________O____ -1 -16.30 51.40 TC 7 191
1897 SI MM 21:00:00 TS -16.66 51.34 141 141 _________P____ -1 -16.66 51.34 TC 7 188
1897 SI MM 1897-02-16 00:00:00 TS -17.00 51.30 161 161 _________O____ -1 -17.00 51.30 TC 7 188
1897 SI MM 03:00:00 TS -17.31 51.25 159 159 _________P____ -1 -17.31 51.25 TC 6 189
1897 SI MM 06:00:00 TS -17.60 51.20 173 170 _________O____ -1 -17.60 51.20 TC 6 190
1897 SI MM 09:00:00 TS -17.90 51.14 170 170 _________P____ -1 -17.90 51.14 TC 6 189
1897 SI MM 12:00:00 TS -18.20 51.10 178 178 _________O____ -1 -18.20 51.10 TC 6 186
1897 SI MM 15:00:00 TS -18.51 51.08 182 182 _________P____ -1 -18.51 51.08 TC 6 179
1897 SI MM 18:00:00 TS -18.80 51.10 191 191 _________O____ -1 -18.80 51.10 TC 5 175
1897 SI MM 21:00:00 TS -18.99 51.13 200 200 _________P____ -1 -18.99 51.13 TC 5 169
1897 SI MM 1897-02-17 00:00:00 TS -19.30 51.20 220 220 _________O____ -1 -19.30 51.20 TC 10 169
1897 SI MM 03:00:00 TS -19.94 51.32 251 251 _________P____ -1 -19.94 51.32 TC 14 169
1897 SI MM 06:00:00 TS -20.70 51.50 292 292 _________O____ -1 -20.70 51.50 TC 15 165
1897 SI MM 09:00:00 TS -21.39 51.73 339 339 _________P____ -1 -21.39 51.73 TC 14 160
1897 SI MM 12:00:00 TS -22.00 52.00 345 337 _________O____ -1 -22.00 52.00 TC 12 157
1897 SI MM 15:00:00 TS -22.49 52.24 346 333 _________P____ -1 -22.49 52.24 TC 10 153
1897 SI MM 18:00:00 TS -22.90 52.50 339 333 _________O____ -1 -22.90 52.50 TC 10 146
1897 SI MM 21:00:00 TS -23.32 52.84 340 333 _________P____ -1 -23.32 52.84 TC 10 141
1897 SI MM 1897-02-18 00:00:00 TS -23.70 53.20 344 344 _________O____ -1 -23.70 53.20 TC 10 139
1897 SI MM 03:00:00 TS -24.05 53.54 353 353 _________P____ -1 -24.05 53.54 TC 10 138
1897 SI MM 06:00:00 TS -24.40 53.90 375 375 _________O____ -1 -24.40 53.90 TC 10 137
1897 SI MM 09:00:00 TS -24.80 54.30 402 402 _________P____ -1 -24.80 54.30 TC 11 138
1897 SI MM 12:00:00 TS -25.20 54.70 434 434 _________O____ -1 -25.20 54.70 TC 10 138
1897 SI MM 15:00:00 TS -25.55 55.05 461 461 _________P____ -1 -25.55 55.05 TC 9 138
1897 SI MM 18:00:00 TS -25.90 55.40 503 503 _________O____ -1 -25.90 55.40 TC 10 138
1897 SI MM 21:00:00 TS -26.29 55.79 548 548 _________P____ -1 -26.29 55.79 TC 11 138
1897 SI MM 1897-02-19 00:00:00 TS -26.70 56.20 595 595 _________O____ -1 -26.70 56.20 TC 11 138
1897 SI MM 03:00:00 TS -27.10 56.60 644 644 _________P____ -1 -27.10 56.60 TC 11 138
1897 SI MM 06:00:00 TS -27.50 57.00 696 696 _________O____ -1 -27.50 57.00 TC 11 138
1897 SI MM 09:00:00 TS -27.89 57.39 748 748 _________P____ -1 -27.89 57.39 TC 11 139
1897 SI MM 12:00:00 TS -28.30 57.80 802 802 _________O____ -1 -28.30 57.80 TC 11 139
1897 SI MM 15:00:00 TS -28.75 58.24 856 856 _________P____ -1 -28.75 58.24 TC 12 139
1897 SI MM 18:00:00 TS -29.20 58.70 925 925 _________O____ -1 -29.20 58.70 TC 11 137
1897 SI MM 21:00:00 TS -29.58 59.14 980 980 _________P____ -1 -29.58 59.14 TC 11 136
1897 SI MM 1897-02-20 00:00:00 TS -30.00 59.60 1040 1040 _________O____ -1 -30.00 59.60 TC 13 137
1897 SI MM 03:00:00 TS -30.52 60.14 1111 1111 _________P____ -1 -30.52 60.14 TC 15 139
1897 SI MM 06:00:00 TS -31.10 60.70 1196 1196 _________O____ -1 -31.10 60.70 TC 15 140
1897 SI MM 09:00:00 TS -31.67 61.25 1281 1281 _________P____ -1 -31.67 61.25 TC 15 142
1897 SI MM 12:00:00 TS -32.30 61.80 1362 1362 _________O____ -1 -32.30 61.80 TC 16 145
1897 SI MM 15:00:00 TS -33.01 62.36 1458 1458 _________P____ -1 -33.01 62.36 TC 18 148
1897 SI MM 18:00:00 TS -33.80 62.90 1558 1558 _________O____ -1 -33.80 62.90 TC 18 152
1897 SI MM 21:00:00 TS -34.64 63.41 1642 1534 _________P____ -1 -34.64 63.41 TC 19 154
1897 SI MM 1897-02-21 00:00:00 TS -35.50 63.90 1534 _________O____ -1 -35.50 63.90 TC 19 155